Time;durP1;ratioP1;P1;durP2;ratioP2;P2;SDS_P1;SDS_P2;PMS_P1;PMS_P2;Temp;Humidity;BMP_temperature;BMP_pressure;BME280_temperature;BME280_humidity;BME280_pressure;Samples;Min_cycle;Max_cycle;Signal;HPM_P1;HPM_P2
2022/07/30 00:00:15;;;;;;;13.00;6.63;;;;;;;;;;5058100;28;20029;-80
2022/07/30 00:02:40;;;;;;;10.45;6.53;;;;;;;;;;5058464;28;20009;-79
2022/07/30 00:05:06;;;;;;;10.48;5.93;;;;;;;;;;5041826;28;20096;-82
2022/07/30 00:07:32;;;;;;;12.70;5.38;;;;;;;;;;5051641;28;20030;-83
2022/07/30 00:09:57;;;;;;;6.60;4.25;;;;;;;;;;5024377;28;20025;-80
2022/07/30 00:12:23;;;;;;;10.30;3.90;;;;;;;;;;5038159;28;20029;-83
2022/07/30 00:14:48;;;;;;;7.10;3.67;;;;;;;;;;5038285;28;20036;-83
2022/07/30 00:17:13;;;;;;;9.15;3.22;;;;;;;;;;5037713;28;20032;-83
2022/07/30 00:19:38;;;;;;;8.23;3.20;;;;;;;;;;5020403;28;20505;-83
2022/07/30 00:22:04;;;;;;;5.43;3.07;;;;;;;;;;5038965;28;20759;-82
2022/07/30 00:24:29;;;;;;;8.80;3.73;;;;;;;;;;5037109;28;20735;-83
2022/07/30 00:26:54;;;;;;;5.65;3.33;;;;;;;;;;5038321;28;20759;-81
2022/07/30 00:29:19;;;;;;;7.73;3.73;;;;;;;;;;5021627;28;20036;-82
2022/07/30 00:31:45;;;;;;;7.47;3.38;;;;;;;;;;5037583;28;20270;-81
2022/07/30 00:34:11;;;;;;;4.20;3.07;;;;;;;;;;5037747;28;20040;-81
2022/07/30 00:36:37;;;;;;;7.28;3.38;;;;;;;;;;5038061;28;20282;-81
2022/07/30 00:39:02;;;;;;;4.53;3.20;;;;;;;;;;5038211;28;20036;-82
2022/07/30 00:41:28;;;;;;;4.30;3.30;;;;;;;;;;5037774;28;20437;-81
2022/07/30 00:43:53;;;;;;;7.90;3.28;;;;;;;;;;5038265;28;20032;-82
2022/07/30 00:46:18;;;;;;;6.23;4.00;;;;;;;;;;5038462;28;20041;-83
2022/07/30 00:48:45;;;;;;;5.50;3.28;;;;;;;;;;5038334;28;20258;-82
2022/07/30 00:51:10;;;;;;;11.25;3.50;;;;;;;;;;5039091;28;20089;-83
2022/07/30 00:53:36;;;;;;;9.20;3.65;;;;;;;;;;5020038;28;20057;-83
2022/07/30 00:56:01;;;;;;;6.15;3.00;;;;;;;;;;5038160;28;20029;-82
2022/07/30 00:58:27;;;;;;;4.85;3.13;;;;;;;;;;5037958;28;20030;-83
2022/07/30 01:00:53;;;;;;;3.60;3.15;;;;;;;;;;5038690;28;20060;-84
2022/07/30 01:03:18;;;;;;;5.65;3.40;;;;;;;;;;5020947;28;20468;-83
2022/07/30 01:05:44;;;;;;;6.70;3.30;;;;;;;;;;5038598;28;20091;-83
2022/07/30 01:08:09;;;;;;;6.93;3.58;;;;;;;;;;5038161;28;20032;-85
2022/07/30 01:10:34;;;;;;;4.35;3.35;;;;;;;;;;5020500;28;20090;-83
2022/07/30 01:13:00;;;;;;;5.10;3.47;;;;;;;;;;5038277;28;20398;-82
2022/07/30 01:15:26;;;;;;;4.93;3.47;;;;;;;;;;5040001;28;20025;-84
2022/07/30 01:17:53;;;;;;;5.05;3.30;;;;;;;;;;5038720;28;20446;-84
2022/07/30 01:20:27;;;;;;;3.95;3.50;;;;;;;;;;5038400;28;20457;-83
2022/07/30 01:23:06;;;;;;;4.47;3.60;;;;;;;;;;5039094;28;20029;-83
2022/07/30 01:25:51;;;;;;;5.70;3.20;;;;;;;;;;5039873;28;20383;-83
2022/07/30 01:28:24;;;;;;;6.28;3.65;;;;;;;;;;5038572;28;20076;-83
2022/07/30 01:30:50;;;;;;;5.90;3.53;;;;;;;;;;5038050;28;20438;-83
2022/07/30 01:33:17;;;;;;;7.28;3.50;;;;;;;;;;5038274;28;20116;-84
2022/07/30 01:35:45;;;;;;;7.28;3.70;;;;;;;;;;5037971;28;20100;-83
2022/07/30 01:38:15;;;;;;;5.72;3.38;;;;;;;;;;5039150;28;20083;-83
2022/07/30 01:40:42;;;;;;;5.47;3.67;;;;;;;;;;5039541;28;20025;-82
2022/07/30 01:43:08;;;;;;;7.03;3.40;;;;;;;;;;5038105;28;20471;-81
2022/07/30 01:45:34;;;;;;;5.15;3.45;;;;;;;;;;5037958;28;20091;-83
2022/07/30 01:48:01;;;;;;;4.78;3.70;;;;;;;;;;5037488;28;20032;-82
2022/07/30 01:50:27;;;;;;;5.85;3.60;;;;;;;;;;5037651;28;20064;-83
2022/07/30 01:52:54;;;;;;;5.10;3.70;;;;;;;;;;5038042;28;20030;-83
2022/07/30 01:55:39;;;;;;;8.73;4.18;;;;;;;;;;5020527;28;20030;-82
2022/07/30 01:58:06;;;;;;;7.30;4.38;;;;;;;;;;5040627;28;20029;-83
2022/07/30 02:00:35;;;;;;;5.13;3.80;;;;;;;;;;5041520;28;20111;-83
2022/07/30 02:03:00;;;;;;;8.43;4.03;;;;;;;;;;5041206;28;20052;-83
2022/07/30 02:05:29;;;;;;;5.10;3.55;;;;;;;;;;5023823;28;20025;-81
2022/07/30 02:07:59;;;;;;;9.73;3.55;;;;;;;;;;5041400;28;20025;-81
2022/07/30 02:10:42;;;;;;;4.45;3.17;;;;;;;;;;5023992;28;20022;-81
2022/07/30 02:13:11;;;;;;;7.45;4.00;;;;;;;;;;5041962;28;20112;-84
2022/07/30 02:15:57;;;;;;;4.95;3.80;;;;;;;;;;5041968;28;20068;-82
2022/07/30 02:18:31;;;;;;;5.68;3.60;;;;;;;;;;5041427;28;20041;-83
2022/07/30 02:21:03;;;;;;;5.13;3.78;;;;;;;;;;5041231;28;20064;-83
2022/07/30 02:23:31;;;;;;;6.93;3.85;;;;;;;;;;5041490;28;20029;-83
2022/07/30 02:25:59;;;;;;;4.70;3.63;;;;;;;;;;5024422;28;20021;-82
2022/07/30 02:28:25;;;;;;;4.80;3.67;;;;;;;;;;5023530;28;20041;-83
2022/07/30 02:30:59;;;;;;;4.70;3.53;;;;;;;;;;5040993;28;20108;-82
2022/07/30 02:33:32;;;;;;;6.18;3.88;;;;;;;;;;5042194;28;20475;-82
2022/07/30 02:35:58;;;;;;;9.23;4.33;;;;;;;;;;5041602;28;20029;-82
2022/07/30 02:38:26;;;;;;;5.03;3.58;;;;;;;;;;5041231;28;20259;-82
2022/07/30 02:40:54;;;;;;;4.75;3.90;;;;;;;;;;5023556;28;20036;-82
2022/07/30 02:43:23;;;;;;;7.78;3.72;;;;;;;;;;5041777;28;20040;-82
2022/07/30 02:45:49;;;;;;;7.05;3.63;;;;;;;;;;5041550;28;20040;-83
2022/07/30 02:48:16;;;;;;;7.00;3.70;;;;;;;;;;5041394;28;20099;-83
2022/07/30 02:50:42;;;;;;;5.78;4.03;;;;;;;;;;5041218;28;20036;-82
2022/07/30 02:53:10;;;;;;;6.72;3.95;;;;;;;;;;5040870;28;20035;-83
2022/07/30 02:55:38;;;;;;;7.45;3.80;;;;;;;;;;5040584;28;20081;-83
2022/07/30 02:58:06;;;;;;;5.70;3.85;;;;;;;;;;5041205;28;20467;-83
2022/07/30 03:00:32;;;;;;;4.80;3.40;;;;;;;;;;5040784;28;20029;-83
2022/07/30 03:02:59;;;;;;;5.70;4.07;;;;;;;;;;5041228;28;20469;-83
2022/07/30 03:05:26;;;;;;;5.10;3.72;;;;;;;;;;5040128;28;20438;-83
2022/07/30 03:07:53;;;;;;;5.60;3.63;;;;;;;;;;5040145;28;20076;-83
2022/07/30 03:10:19;;;;;;;7.90;3.58;;;;;;;;;;5040674;28;20028;-82
2022/07/30 03:12:46;;;;;;;4.75;3.67;;;;;;;;;;5040339;28;20051;-82
2022/07/30 03:15:12;;;;;;;4.95;3.50;;;;;;;;;;5040787;28;20028;-83
2022/07/30 03:17:41;;;;;;;7.00;3.53;;;;;;;;;;5041140;28;20030;-83
2022/07/30 03:20:09;;;;;;;8.95;3.95;;;;;;;;;;5039674;28;20029;-82
2022/07/30 03:22:40;;;;;;;4.45;3.60;;;;;;;;;;5039619;28;20115;-81
2022/07/30 03:25:06;;;;;;;6.63;3.90;;;;;;;;;;5040087;28;20431;-82
2022/07/30 03:27:32;;;;;;;6.65;3.90;;;;;;;;;;5040500;28;20372;-82
2022/07/30 03:30:01;;;;;;;7.18;3.85;;;;;;;;;;5040874;28;20025;-82
2022/07/30 03:32:26;;;;;;;4.22;3.58;;;;;;;;;;5039731;28;20077;-83
2022/07/30 03:34:53;;;;;;;4.75;3.75;;;;;;;;;;5039667;28;20060;-83
2022/07/30 03:37:18;;;;;;;5.90;3.85;;;;;;;;;;5040013;28;20138;-83
2022/07/30 03:39:44;;;;;;;5.78;4.20;;;;;;;;;;5022308;28;20449;-83
2022/07/30 03:42:10;;;;;;;6.50;4.10;;;;;;;;;;5039879;28;20041;-84
2022/07/30 03:44:36;;;;;;;6.97;3.70;;;;;;;;;;5039838;28;20558;-82
2022/07/30 03:47:03;;;;;;;4.95;3.70;;;;;;;;;;5040168;28;20045;-83
2022/07/30 03:49:29;;;;;;;5.18;3.85;;;;;;;;;;5039535;28;20040;-82
2022/07/30 03:51:55;;;;;;;4.80;3.70;;;;;;;;;;5038225;28;20021;-83
2022/07/30 03:54:21;;;;;;;5.57;3.72;;;;;;;;;;5039612;28;20025;-83
2022/07/30 03:56:47;;;;;;;6.60;4.28;;;;;;;;;;5039144;28;20075;-85
2022/07/30 03:59:13;;;;;;;6.85;4.10;;;;;;;;;;5038387;28;20021;-83
2022/07/30 04:01:38;;;;;;;5.55;4.15;;;;;;;;;;5038404;28;20104;-83
2022/07/30 04:04:08;;;;;;;7.10;4.57;;;;;;;;;;5037970;28;20049;-83
2022/07/30 04:06:38;;;;;;;5.78;4.05;;;;;;;;;;5038145;28;20025;-83
2022/07/30 04:09:05;;;;;;;6.78;4.47;;;;;;;;;;5039609;28;20018;-82
2022/07/30 04:11:30;;;;;;;7.68;4.25;;;;;;;;;;5038297;28;20056;-83
2022/07/30 04:13:56;;;;;;;5.43;4.20;;;;;;;;;;5038937;28;20087;-83
2022/07/30 04:16:36;;;;;;;8.73;4.37;;;;;;;;;;5039180;28;20266;-83
2022/07/30 04:19:05;;;;;;;5.93;4.43;;;;;;;;;;5040373;28;20341;-83
2022/07/30 04:21:32;;;;;;;5.15;4.13;;;;;;;;;;5020316;28;20025;-83
2022/07/30 04:24:00;;;;;;;6.05;4.50;;;;;;;;;;5038233;28;20029;-83
2022/07/30 04:26:26;;;;;;;7.45;4.20;;;;;;;;;;5037014;28;20021;-83
2022/07/30 04:28:51;;;;;;;5.80;4.20;;;;;;;;;;5019023;28;20554;-82
2022/07/30 04:31:20;;;;;;;6.70;4.28;;;;;;;;;;5036627;28;20117;-84
2022/07/30 04:33:45;;;;;;;6.57;4.80;;;;;;;;;;5036981;28;20029;-84
2022/07/30 04:36:11;;;;;;;7.43;4.72;;;;;;;;;;5036689;28;20071;-84
2022/07/30 04:38:36;;;;;;;7.37;4.50;;;;;;;;;;5037094;28;20099;-81
2022/07/30 04:41:02;;;;;;;6.63;4.70;;;;;;;;;;5036198;28;20262;-82
2022/07/30 04:43:27;;;;;;;8.05;4.72;;;;;;;;;;5037921;28;20106;-82
2022/07/30 04:45:52;;;;;;;7.07;4.72;;;;;;;;;;5039442;28;20030;-80
2022/07/30 04:48:18;;;;;;;7.13;4.40;;;;;;;;;;5042063;28;20453;-81
2022/07/30 04:50:47;;;;;;;8.65;5.00;;;;;;;;;;5022260;28;20025;-81
2022/07/30 04:53:13;;;;;;;8.55;5.00;;;;;;;;;;5023126;28;20052;-79
2022/07/30 04:55:45;;;;;;;6.72;4.63;;;;;;;;;;5021617;28;20021;-79
2022/07/30 04:58:13;;;;;;;8.70;4.80;;;;;;;;;;5039649;28;20021;-82
2022/07/30 05:00:40;;;;;;;6.95;4.45;;;;;;;;;;5040326;28;20047;-80
2022/07/30 05:03:08;;;;;;;7.85;4.78;;;;;;;;;;5039609;28;20036;-81
2022/07/30 05:05:35;;;;;;;7.85;4.25;;;;;;;;;;5040267;28;20087;-78
2022/07/30 05:08:02;;;;;;;5.25;3.95;;;;;;;;;;5040461;28;20128;-80
2022/07/30 05:10:28;;;;;;;7.95;4.40;;;;;;;;;;5039662;28;20027;-80
2022/07/30 05:12:53;;;;;;;5.22;4.13;;;;;;;;;;5040269;28;20104;-80
2022/07/30 05:15:19;;;;;;;9.77;4.30;;;;;;;;;;5040592;28;20429;-81
2022/07/30 05:17:44;;;;;;;8.02;4.63;;;;;;;;;;5040562;28;20032;-82
2022/07/30 05:20:10;;;;;;;6.68;4.30;;;;;;;;;;5039589;28;20040;-81
2022/07/30 05:22:35;;;;;;;6.95;4.70;;;;;;;;;;5039195;28;20402;-81
2022/07/30 05:25:01;;;;;;;7.93;4.38;;;;;;;;;;5038458;28;20107;-80
2022/07/30 05:27:26;;;;;;;7.47;4.30;;;;;;;;;;5039434;28;20398;-80
2022/07/30 05:29:51;;;;;;;8.30;4.33;;;;;;;;;;5040155;28;20698;-82
2022/07/30 05:32:16;;;;;;;6.37;4.40;;;;;;;;;;5038815;28;20669;-81
2022/07/30 05:34:42;;;;;;;8.43;4.57;;;;;;;;;;5038946;28;20285;-83
2022/07/30 05:37:07;;;;;;;7.72;4.00;;;;;;;;;;5039046;28;20289;-81
2022/07/30 05:39:32;;;;;;;6.65;4.18;;;;;;;;;;5039596;28;20072;-82
2022/07/30 05:41:58;;;;;;;4.80;3.67;;;;;;;;;;5038274;28;20029;-82
2022/07/30 05:44:23;;;;;;;7.63;4.25;;;;;;;;;;5039656;28;20084;-84
2022/07/30 05:46:48;;;;;;;5.77;4.03;;;;;;;;;;5021228;28;20367;-80
2022/07/30 05:49:14;;;;;;;7.90;4.47;;;;;;;;;;5039336;28;20675;-82
2022/07/30 05:51:39;;;;;;;5.93;4.13;;;;;;;;;;5038478;28;20049;-81
2022/07/30 05:54:05;;;;;;;7.75;4.57;;;;;;;;;;5039224;28;20072;-83
2022/07/30 05:56:30;;;;;;;5.40;3.95;;;;;;;;;;5020782;28;20021;-82
2022/07/30 05:58:55;;;;;;;5.78;3.83;;;;;;;;;;5038998;28;20040;-82
2022/07/30 06:01:20;;;;;;;10.40;4.17;;;;;;;;;;5038346;28;20053;-83
2022/07/30 06:03:46;;;;;;;7.60;3.90;;;;;;;;;;5037764;28;20632;-81
2022/07/30 06:06:11;;;;;;;6.95;3.95;;;;;;;;;;5038854;28;20285;-82
2022/07/30 06:08:37;;;;;;;6.38;4.30;;;;;;;;;;5039036;28;20056;-83
2022/07/30 06:11:02;;;;;;;9.25;4.70;;;;;;;;;;5039182;28;20028;-81
2022/07/30 06:13:28;;;;;;;8.77;4.22;;;;;;;;;;5039593;28;20063;-81
2022/07/30 06:15:53;;;;;;;6.95;4.70;;;;;;;;;;5039771;28;20053;-81
2022/07/30 06:18:18;;;;;;;7.93;4.63;;;;;;;;;;5037264;28;20064;-83
2022/07/30 06:20:44;;;;;;;5.45;4.30;;;;;;;;;;5037318;28;20281;-83
2022/07/30 06:23:09;;;;;;;9.65;4.90;;;;;;;;;;5038606;28;20469;-82
2022/07/30 06:25:34;;;;;;;6.93;4.35;;;;;;;;;;5021112;28;20024;-81
2022/07/30 06:28:00;;;;;;;7.47;4.30;;;;;;;;;;5038355;28;20471;-82
2022/07/30 06:30:25;;;;;;;6.88;4.32;;;;;;;;;;5038382;28;20814;-82
2022/07/30 06:32:50;;;;;;;7.18;4.10;;;;;;;;;;5021393;28;20022;-82
2022/07/30 06:35:15;;;;;;;17.67;4.50;;;;;;;;;;5037945;28;20026;-82
2022/07/30 06:37:41;;;;;;;6.47;4.03;;;;;;;;;;5039035;28;20039;-83
2022/07/30 06:40:07;;;;;;;5.45;4.00;;;;;;;;;;5038921;28;20021;-83
2022/07/30 06:42:33;;;;;;;5.57;3.97;;;;;;;;;;5021788;28;20029;-85
2022/07/30 06:44:58;;;;;;;7.10;4.45;;;;;;;;;;5024958;28;20087;-82
2022/07/30 06:47:28;;;;;;;8.18;4.38;;;;;;;;;;5042915;28;20100;-80
2022/07/30 06:49:54;;;;;;;8.25;4.20;;;;;;;;;;5042444;28;20029;-82
2022/07/30 06:52:19;;;;;;;8.80;4.50;;;;;;;;;;5043898;28;20033;-83
2022/07/30 06:54:46;;;;;;;8.52;4.82;;;;;;;;;;5043576;28;20442;-83
2022/07/30 06:57:11;;;;;;;8.32;4.20;;;;;;;;;;5025264;28;20022;-81
2022/07/30 06:59:37;;;;;;;7.75;4.28;;;;;;;;;;5043454;28;20095;-81
2022/07/30 07:02:02;;;;;;;6.00;4.10;;;;;;;;;;5024985;28;20063;-82
2022/07/30 07:04:27;;;;;;;7.22;4.05;;;;;;;;;;5025217;28;20258;-82
2022/07/30 07:06:52;;;;;;;7.43;4.45;;;;;;;;;;5042998;28;20022;-82
2022/07/30 07:09:17;;;;;;;7.77;4.17;;;;;;;;;;5043501;28;20029;-81
2022/07/30 07:11:43;;;;;;;8.37;3.83;;;;;;;;;;5042219;28;20605;-82
2022/07/30 07:14:08;;;;;;;6.33;3.87;;;;;;;;;;5044024;28;20393;-83
2022/07/30 07:16:33;;;;;;;8.32;3.88;;;;;;;;;;5042821;28;20283;-82
2022/07/30 07:18:59;;;;;;;5.78;3.70;;;;;;;;;;5043538;28;20025;-82
2022/07/30 07:21:24;;;;;;;5.87;3.93;;;;;;;;;;5045884;28;20026;-83
2022/07/30 07:23:49;;;;;;;7.65;3.85;;;;;;;;;;5025670;28;20813;-83
2022/07/30 07:26:16;;;;;;;5.67;3.90;;;;;;;;;;5043472;28;20037;-83
2022/07/30 07:28:41;;;;;;;4.97;3.60;;;;;;;;;;5043541;28;20312;-83
2022/07/30 07:31:07;;;;;;;7.85;3.50;;;;;;;;;;5043333;28;20104;-82
2022/07/30 07:33:32;;;;;;;8.23;3.92;;;;;;;;;;5042888;28;20486;-83
2022/07/30 07:35:57;;;;;;;8.43;3.92;;;;;;;;;;5042992;28;20463;-81
2022/07/30 07:38:23;;;;;;;7.83;3.73;;;;;;;;;;5025194;28;20021;-82
2022/07/30 07:40:48;;;;;;;9.85;4.20;;;;;;;;;;5041934;28;20350;-82
2022/07/30 07:43:14;;;;;;;8.35;3.75;;;;;;;;;;5048024;28;20025;-82
2022/07/30 07:45:40;;;;;;;7.07;3.88;;;;;;;;;;5047763;28;20104;-82
2022/07/30 07:48:06;;;;;;;9.20;3.35;;;;;;;;;;5054283;28;20036;-84
2022/07/30 07:50:31;;;;;;;5.65;3.78;;;;;;;;;;5054642;28;20034;-82
2022/07/30 07:52:56;;;;;;;14.18;4.22;;;;;;;;;;5054535;28;20025;-81
2022/07/30 07:55:22;;;;;;;9.97;3.57;;;;;;;;;;5053014;28;20033;-83
2022/07/30 07:57:47;;;;;;;7.55;3.65;;;;;;;;;;5054129;28;20255;-81
2022/07/30 08:00:13;;;;;;;9.90;3.80;;;;;;;;;;5051222;28;20051;-82
2022/07/30 08:02:39;;;;;;;7.85;3.80;;;;;;;;;;5045311;28;20052;-83
2022/07/30 08:05:11;;;;;;;5.47;3.72;;;;;;;;;;5044135;28;20044;-83
2022/07/30 08:07:36;;;;;;;10.88;3.88;;;;;;;;;;5044547;28;20037;-82
2022/07/30 08:10:02;;;;;;;6.85;4.10;;;;;;;;;;5043184;28;20021;-82
2022/07/30 08:12:27;;;;;;;11.30;4.57;;;;;;;;;;5023297;28;20076;-82
2022/07/30 08:14:53;;;;;;;9.10;4.10;;;;;;;;;;5041095;28;20029;-82
2022/07/30 08:17:18;;;;;;;7.72;4.00;;;;;;;;;;5039762;28;20017;-81
2022/07/30 08:19:44;;;;;;;8.95;4.50;;;;;;;;;;5039665;28;20048;-84
2022/07/30 08:22:09;;;;;;;9.75;5.45;;;;;;;;;;5022345;28;20055;-84
2022/07/30 08:24:35;;;;;;;8.52;4.85;;;;;;;;;;5038550;28;20021;-82
2022/07/30 08:27:00;;;;;;;8.75;4.93;;;;;;;;;;5039000;28;20021;-83
2022/07/30 08:29:25;;;;;;;6.90;4.75;;;;;;;;;;5021073;28;20494;-82
2022/07/30 08:31:50;;;;;;;9.05;5.43;;;;;;;;;;5039570;28;20022;-81
2022/07/30 08:34:16;;;;;;;8.50;5.47;;;;;;;;;;5022700;28;20027;-83
2022/07/30 08:36:42;;;;;;;8.60;5.18;;;;;;;;;;5022832;28;20301;-83
2022/07/30 08:39:07;;;;;;;7.75;4.75;;;;;;;;;;5041327;28;20395;-83
2022/07/30 08:41:34;;;;;;;6.30;4.80;;;;;;;;;;5039869;28;20068;-83
2022/07/30 08:44:03;;;;;;;6.90;5.05;;;;;;;;;;5039782;28;20030;-83
2022/07/30 08:46:32;;;;;;;9.73;5.63;;;;;;;;;;5039026;28;20021;-81
2022/07/30 08:48:57;;;;;;;10.15;4.88;;;;;;;;;;5038592;28;20082;-83
2022/07/30 08:51:23;;;;;;;7.95;5.50;;;;;;;;;;5039083;28;20047;-84
2022/07/30 08:53:49;;;;;;;6.82;5.10;;;;;;;;;;5039474;28;20048;-81
2022/07/30 08:56:15;;;;;;;7.88;5.00;;;;;;;;;;5040007;28;20031;-81
2022/07/30 08:58:41;;;;;;;9.95;5.10;;;;;;;;;;5040838;28;20534;-82
2022/07/30 09:01:07;;;;;;;10.07;5.50;;;;;;;;;;5037194;22;20511;-83
2022/07/30 09:03:35;;;;;;;8.65;4.85;;;;;;;;;;5000279;28;20023;-83
2022/07/30 09:06:04;;;;;;;7.70;5.30;;;;;;;;;;5001537;28;20058;-82
2022/07/30 09:08:30;;;;;;;8.68;4.82;;;;;;;;;;4983734;28;20057;-82
2022/07/30 09:11:09;;;;;;;;;;;;;;;;;;;;;
2022/07/30 09:13:43;;;;;;;5.18;4.43;;;;;;;;;;5001649;28;20098;-80
2022/07/30 09:16:22;;;;;;;7.82;4.38;;;;;;;;;;5000824;28;20102;-78
2022/07/30 09:18:47;;;;;;;8.38;4.35;;;;;;;;;;4999911;28;20110;-80
2022/07/30 09:21:16;;;;;;;8.30;4.50;;;;;;;;;;4981899;28;20046;-81
2022/07/30 09:24:03;;;;;;;7.85;4.30;;;;;;;;;;5001100;28;20030;-80
2022/07/30 09:26:30;;;;;;;6.88;4.40;;;;;;;;;;4999536;28;20110;-81
2022/07/30 09:29:14;;;;;;;7.53;4.20;;;;;;;;;;4982654;28;20510;-76
2022/07/30 09:31:57;;;;;;;7.30;4.22;;;;;;;;;;4997473;28;20034;-79
2022/07/30 09:34:27;;;;;;;8.90;4.38;;;;;;;;;;4997657;28;20026;-78
2022/07/30 09:36:53;;;;;;;10.35;4.57;;;;;;;;;;4998777;28;20025;-79
2022/07/30 09:39:41;;;;;;;8.15;4.10;;;;;;;;;;4997649;28;20018;-79
2022/07/30 09:42:18;;;;;;;8.18;4.45;;;;;;;;;;4979650;28;20026;-79
2022/07/30 09:44:44;;;;;;;5.45;4.20;;;;;;;;;;4996981;28;20484;-80
2022/07/30 09:47:29;;;;;;;10.63;4.68;;;;;;;;;;4997629;28;20444;-78
2022/07/30 09:50:01;;;;;;;;;;;;;;;;;;4998606;28;20041;-79
2022/07/30 09:52:27;;;;;;;7.57;4.28;;;;;;;;;;4996645;28;19910;-80
2022/07/30 09:54:53;;;;;;;6.32;4.70;;;;;;;;;;4996484;28;20036;-78
2022/07/30 09:57:18;;;;;;;7.50;4.80;;;;;;;;;;4978786;28;20090;-78
2022/07/30 09:59:43;;;;;;;7.80;4.68;;;;;;;;;;4996260;28;20030;-79
2022/07/30 10:02:09;;;;;;;7.77;4.80;;;;;;;;;;4996566;28;20041;-81
2022/07/30 10:04:35;;;;;;;9.98;4.80;;;;;;;;;;4996810;28;20271;-79
2022/07/30 10:07:01;;;;;;;8.05;5.22;;;;;;;;;;4996175;28;20019;-78
2022/07/30 10:09:32;;;;;;;10.82;4.90;;;;;;;;;;4995790;28;20073;-80
2022/07/30 10:11:59;;;;;;;7.32;4.65;;;;;;;;;;4996473;28;20026;-81
2022/07/30 10:14:28;;;;;;;6.88;4.72;;;;;;;;;;4996089;28;20082;-80
2022/07/30 10:16:54;;;;;;;7.72;5.20;;;;;;;;;;4979076;28;20452;-79
2022/07/30 10:19:20;;;;;;;9.05;5.35;;;;;;;;;;4998804;28;20126;-78
2022/07/30 10:21:47;;;;;;;6.50;4.78;;;;;;;;;;4999895;28;20046;-78
2022/07/30 10:24:15;;;;;;;7.00;4.95;;;;;;;;;;4999733;28;20038;-77
2022/07/30 10:26:41;;;;;;;6.57;4.65;;;;;;;;;;4982315;28;20018;-79
2022/07/30 10:29:06;;;;;;;11.55;4.80;;;;;;;;;;5000068;28;20034;-78
2022/07/30 10:31:32;;;;;;;8.73;4.70;;;;;;;;;;5000136;28;20033;-77
2022/07/30 10:33:57;;;;;;;7.85;4.88;;;;;;;;;;4999327;28;20034;-79
2022/07/30 10:36:24;;;;;;;9.25;4.93;;;;;;;;;;4982368;28;20018;-78
2022/07/30 10:38:50;;;;;;;9.40;4.78;;;;;;;;;;4999607;28;20062;-79
2022/07/30 10:41:36;;;;;;;6.40;4.63;;;;;;;;;;5000095;28;20038;-79
2022/07/30 10:44:28;;;;;;;7.63;4.45;;;;;;;;;;4999799;28;20085;-80
2022/07/30 10:47:04;;;;;;;5.15;4.00;;;;;;;;;;4982065;28;20028;-78
2022/07/30 10:49:30;;;;;;;8.82;5.10;;;;;;;;;;5000273;28;20093;-81
2022/07/30 10:51:56;;;;;;;9.55;4.50;;;;;;;;;;4999255;28;20034;-80
2022/07/30 10:54:33;;;;;;;8.35;4.80;;;;;;;;;;4999491;28;20443;-80
2022/07/30 10:57:12;;;;;;;6.43;4.68;;;;;;;;;;4999687;28;20019;-79
2022/07/30 10:59:54;;;;;;;11.18;5.05;;;;;;;;;;4982597;28;20045;-79
2022/07/30 11:02:20;;;;;;;9.27;4.78;;;;;;;;;;4999012;28;20027;-78
2022/07/30 11:04:45;;;;;;;9.02;4.75;;;;;;;;;;4999603;28;20061;-79
2022/07/30 11:07:20;;;;;;;6.47;4.50;;;;;;;;;;4999541;28;20026;-80
2022/07/30 11:09:45;;;;;;;5.90;4.55;;;;;;;;;;4982087;28;20463;-79
2022/07/30 11:12:11;;;;;;;7.75;4.70;;;;;;;;;;4998934;28;20053;-79
2022/07/30 11:14:45;;;;;;;6.15;4.30;;;;;;;;;;4981836;28;20057;-80
2022/07/30 11:17:12;;;;;;;11.90;4.25;;;;;;;;;;4981636;28;20053;-80
2022/07/30 11:20:06;;;;;;;8.38;4.43;;;;;;;;;;4999741;28;20069;-81
2022/07/30 11:22:43;;;;;;;;;;;;;;;;;;4982188;28;20026;-80
2022/07/30 11:25:17;;;;;;;8.18;4.13;;;;;;;;;;4999363;28;20295;-79
2022/07/30 11:27:45;;;;;;;6.75;4.68;;;;;;;;;;4981510;28;20023;-79
2022/07/30 11:30:17;;;;;;;11.35;4.43;;;;;;;;;;4981189;28;20066;-80
2022/07/30 11:33:06;;;;;;;9.38;3.85;;;;;;;;;;4981621;28;20117;-79
2022/07/30 11:35:33;;;;;;;6.32;3.97;;;;;;;;;;4990670;28;20057;-81
2022/07/30 11:38:17;;;;;;;7.65;4.05;;;;;;;;;;5001684;28;20022;-82
2022/07/30 11:40:43;;;;;;;5.03;4.38;;;;;;;;;;5001524;28;20033;-81
2022/07/30 11:43:16;;;;;;;8.80;4.50;;;;;;;;;;5002314;28;20525;-83
2022/07/30 11:45:43;;;;;;;7.38;4.65;;;;;;;;;;4984289;28;20485;-83
2022/07/30 11:48:14;;;;;;;8.63;4.22;;;;;;;;;;5001585;28;20119;-82
2022/07/30 11:50:46;;;;;;;7.65;4.10;;;;;;;;;;4983748;28;20038;-82
2022/07/30 11:53:19;;;;;;;8.88;4.00;;;;;;;;;;4984364;28;20056;-82
2022/07/30 11:55:58;;;;;;;7.38;3.90;;;;;;;;;;5001245;28;20022;-82
2022/07/30 11:58:38;;;;;;;7.93;3.88;;;;;;;;;;4983865;28;20034;-83
2022/07/30 12:01:24;;;;;;;7.93;3.95;;;;;;;;;;4984141;28;20113;-80
2022/07/30 12:03:49;;;;;;;10.98;4.15;;;;;;;;;;4999343;28;20031;-78
2022/07/30 12:06:22;;;;;;;9.10;3.75;;;;;;;;;;4981338;28;20122;-77
2022/07/30 12:08:49;;;;;;;6.45;4.43;;;;;;;;;;4980490;28;20038;-76
2022/07/30 12:11:15;;;;;;;5.95;3.85;;;;;;;;;;4997772;28;20053;-77
2022/07/30 12:13:45;;;;;;;7.80;3.92;;;;;;;;;;4979780;28;20022;-77
2022/07/30 12:16:12;;;;;;;8.73;3.80;;;;;;;;;;4979467;28;20030;-76
2022/07/30 12:18:37;;;;;;;10.15;3.85;;;;;;;;;;4980071;28;20030;-77
2022/07/30 12:21:10;;;;;;;8.05;3.97;;;;;;;;;;4979849;28;20026;-77
2022/07/30 12:23:36;;;;;;;6.05;4.00;;;;;;;;;;4979139;28;20412;-77
2022/07/30 12:26:02;;;;;;;5.55;3.95;;;;;;;;;;4980195;28;20030;-78
2022/07/30 12:28:30;;;;;;;5.63;3.55;;;;;;;;;;4997095;28;20028;-77
2022/07/30 12:30:57;;;;;;;7.10;3.75;;;;;;;;;;4997531;28;20033;-77
2022/07/30 12:33:23;;;;;;;5.15;3.00;;;;;;;;;;4996984;28;20033;-78
2022/07/30 12:35:56;;;;;;;7.35;3.22;;;;;;;;;;4997485;28;20086;-79
2022/07/30 12:38:23;;;;;;;7.50;3.22;;;;;;;;;;4980455;28;20126;-77
2022/07/30 12:40:50;;;;;;;5.18;3.72;;;;;;;;;;4978993;28;20121;-75
2022/07/30 12:43:51;;;;;;;9.80;3.40;;;;;;;;;;4997116;28;20034;-78
2022/07/30 12:46:22;;;;;;;6.55;3.65;;;;;;;;;;4996717;28;20412;-78
2022/07/30 12:49:02;;;;;;;7.05;3.78;;;;;;;;;;4997235;28;20443;-76
2022/07/30 12:51:33;;;;;;;9.20;4.03;;;;;;;;;;4978507;28;20376;-77
2022/07/30 12:54:00;;;;;;;10.35;4.32;;;;;;;;;;4996068;28;20037;-77
2022/07/30 12:56:28;;;;;;;7.70;3.80;;;;;;;;;;4978400;28;20030;-78
2022/07/30 12:59:19;;;;;;;8.32;4.28;;;;;;;;;;4997098;28;20052;-77
2022/07/30 13:01:55;;;;;;;6.13;3.85;;;;;;;;;;4996167;28;20113;-77
2022/07/30 13:04:21;;;;;;;7.82;3.78;;;;;;;;;;4996686;28;20018;-76
2022/07/30 13:07:09;;;;;;;8.52;3.78;;;;;;;;;;4996383;28;20118;-77
2022/07/30 13:09:35;;;;;;;6.53;4.00;;;;;;;;;;4996381;28;20449;-76
2022/07/30 13:12:01;;;;;;;8.23;3.70;;;;;;;;;;4995511;28;20058;-77
2022/07/30 13:14:26;;;;;;;9.20;3.63;;;;;;;;;;4996210;28;20041;-77
2022/07/30 13:16:53;;;;;;;10.10;4.00;;;;;;;;;;4978726;28;20018;-78
2022/07/30 13:19:18;;;;;;;10.38;3.72;;;;;;;;;;4977736;28;20038;-77
2022/07/30 13:21:44;;;;;;;7.90;3.50;;;;;;;;;;4995273;28;20427;-78
2022/07/30 13:24:11;;;;;;;11.45;3.28;;;;;;;;;;4995468;28;20627;-77
2022/07/30 13:26:36;;;;;;;7.65;3.30;;;;;;;;;;4995263;28;20108;-77
2022/07/30 13:29:02;;;;;;;4.38;3.00;;;;;;;;;;4995176;28;20038;-79
2022/07/30 13:31:27;;;;;;;9.10;2.95;;;;;;;;;;4995004;28;20030;-77
2022/07/30 13:33:52;;;;;;;4.05;2.40;;;;;;;;;;4994840;28;20026;-78
2022/07/30 13:36:18;;;;;;;7.65;2.30;;;;;;;;;;4995138;28;20068;-77
2022/07/30 13:38:44;;;;;;;5.53;2.10;;;;;;;;;;4995086;28;20395;-79
2022/07/30 13:41:09;;;;;;;2.72;2.20;;;;;;;;;;4995187;28;20457;-78
2022/07/30 13:43:35;;;;;;;5.00;2.30;;;;;;;;;;4995255;28;20026;-78
2022/07/30 13:46:02;;;;;;;4.13;2.00;;;;;;;;;;4995443;28;20468;-77
2022/07/30 13:48:27;;;;;;;3.15;2.05;;;;;;;;;;4977464;28;20436;-77
2022/07/30 13:50:52;;;;;;;3.78;2.08;;;;;;;;;;4995367;28;20088;-78
2022/07/30 13:53:17;;;;;;;2.42;2.00;;;;;;;;;;4996283;28;20026;-78
2022/07/30 13:55:45;;;;;;;6.93;2.30;;;;;;;;;;4995253;28;20022;-78
2022/07/30 13:58:10;;;;;;;4.53;2.20;;;;;;;;;;4995403;28;20268;-79
2022/07/30 14:00:36;;;;;;;5.53;2.50;;;;;;;;;;4995933;28;20037;-78
2022/07/30 14:03:03;;;;;;;3.63;2.30;;;;;;;;;;4976720;28;20427;-77
2022/07/30 14:05:29;;;;;;;3.40;2.10;;;;;;;;;;4976990;28;20034;-77
2022/07/30 14:07:54;;;;;;;5.53;2.30;;;;;;;;;;4994381;28;20014;-78
2022/07/30 14:10:22;;;;;;;3.25;2.10;;;;;;;;;;4994428;28;20030;-76
2022/07/30 14:12:49;;;;;;;5.85;2.17;;;;;;;;;;4978547;28;20050;-78
2022/07/30 14:15:14;;;;;;;10.75;2.95;;;;;;;;;;4977746;28;20033;-76
2022/07/30 14:17:40;;;;;;;3.85;2.22;;;;;;;;;;4977004;28;20022;-76
2022/07/30 14:20:05;;;;;;;4.65;2.30;;;;;;;;;;4995102;28;20029;-76
2022/07/30 14:22:31;;;;;;;3.65;2.28;;;;;;;;;;4994810;28;20030;-77
2022/07/30 14:24:56;;;;;;;4.73;1.80;;;;;;;;;;4994379;28;20035;-77
2022/07/30 14:27:21;;;;;;;6.20;2.20;;;;;;;;;;4995253;28;20306;-76
2022/07/30 14:29:46;;;;;;;3.95;1.90;;;;;;;;;;4995559;28;20403;-78
2022/07/30 14:32:12;;;;;;;5.85;2.10;;;;;;;;;;4994131;28;20518;-77
2022/07/30 14:34:37;;;;;;;9.80;2.20;;;;;;;;;;4994498;28;20157;-77
2022/07/30 14:37:02;;;;;;;4.18;1.80;;;;;;;;;;4994948;28;20312;-77
2022/07/30 14:39:27;;;;;;;3.27;2.00;;;;;;;;;;4996948;28;20072;-77
2022/07/30 14:41:53;;;;;;;5.40;2.05;;;;;;;;;;4996250;28;20264;-78
2022/07/30 14:44:18;;;;;;;3.67;1.90;;;;;;;;;;4979721;28;20026;-79
2022/07/30 14:46:43;;;;;;;2.92;2.03;;;;;;;;;;4995943;28;20025;-77